Time;durP1;ratioP1;P1;durP2;ratioP2;P2;SDS_P1;SDS_P2;PMS_P1;PMS_P2;Temp;Humidity;BMP_temperature;BMP_pressure;BME280_temperature;BME280_humidity;BME280_pressure;Samples;Min_cycle;Max_cycle;Signal;HPM_P1;HPM_P2
2021/03/24 00:03:35;;;;;;;43.90;37.30;;;;;;;8.58;54.11;98752.13;8334891;28;20208;-64
2021/03/24 00:07:38;;;;;;;43.27;36.83;;;;;;;8.50;53.88;98759.22;8331154;28;20207;-63
2021/03/24 00:11:40;;;;;;;43.40;37.53;;;;;;;8.45;54.22;98760.19;8331523;28;20203;-64
2021/03/24 00:15:42;;;;;;;46.37;36.20;;;;;;;8.34;54.60;98763.84;8331316;28;20767;-64
2021/03/24 00:19:44;;;;;;;41.93;35.70;;;;;;;8.36;54.22;98763.81;8331051;28;20545;-64
2021/03/24 00:23:47;;;;;;;44.27;36.47;;;;;;;8.27;54.71;98767.44;8330660;28;20207;-63
2021/03/24 00:27:51;;;;;;;41.50;35.27;;;;;;;8.35;54.48;98769.84;8330280;28;20231;-64
2021/03/24 00:31:52;;;;;;;42.00;36.50;;;;;;;8.33;54.61;98767.31;8330509;28;20208;-63
2021/03/24 00:35:55;;;;;;;44.07;34.83;;;;;;;8.30;54.98;98769.97;8330699;28;20623;-64
2021/03/24 00:39:58;;;;;;;42.60;35.97;;;;;;;8.33;54.75;98762.16;8330427;28;20224;-65
2021/03/24 00:44:00;;;;;;;40.73;35.50;;;;;;;8.34;54.44;98761.28;8330512;28;20215;-63
2021/03/24 00:48:03;;;;;;;40.43;35.77;;;;;;;8.39;53.90;98761.16;8330465;28;20686;-63
2021/03/24 00:52:06;;;;;;;42.40;36.93;;;;;;;8.28;54.25;98757.97;8330360;28;20200;-64
2021/03/24 00:56:09;;;;;;;38.37;34.20;;;;;;;8.31;54.50;98760.50;8332729;28;20236;-64
2021/03/24 01:00:15;;;;;;;44.93;35.90;;;;;;;8.21;54.81;98758.13;8356880;28;20202;-64
2021/03/24 01:04:17;;;;;;;40.87;34.40;;;;;;;8.28;54.62;98755.38;8370046;28;20188;-64
2021/03/24 01:08:21;;;;;;;43.20;36.17;;;;;;;8.14;54.50;98759.13;8370145;28;20211;-64
2021/03/24 01:12:24;;;;;;;42.63;36.50;;;;;;;8.17;54.77;98761.66;8369518;28;20219;-64
2021/03/24 01:16:26;;;;;;;40.60;34.47;;;;;;;8.16;54.77;98762.50;8369912;28;20191;-64
2021/03/24 01:20:31;;;;;;;42.40;35.57;;;;;;;8.03;54.95;98756.78;8369606;28;20646;-64
2021/03/24 01:24:33;;;;;;;39.40;35.07;;;;;;;8.07;55.36;98760.13;8369538;28;20207;-63
2021/03/24 01:28:35;;;;;;;39.40;33.03;;;;;;;8.12;54.98;98753.16;8368985;28;20227;-64
2021/03/24 01:32:38;;;;;;;40.13;35.53;;;;;;;8.03;55.33;98763.66;8369178;28;20223;-64
2021/03/24 01:36:40;;;;;;;41.23;35.60;;;;;;;8.05;55.02;98759.31;8368997;28;20527;-64
2021/03/24 01:40:44;;;;;;;39.43;34.23;;;;;;;8.02;54.99;98760.25;8368973;28;20266;-63
2021/03/24 01:45:28;;;;;;;41.60;34.77;;;;;;;8.10;54.63;98748.91;8368584;28;20199;-65
2021/03/24 01:49:33;;;;;;;48.23;36.17;;;;;;;8.07;54.85;98747.22;8319928;28;20196;-64
2021/03/24 01:53:37;;;;;;;40.97;32.97;;;;;;;8.13;54.86;98741.09;8368814;28;20274;-64
2021/03/24 01:57:40;;;;;;;41.77;35.43;;;;;;;8.06;54.99;98753.28;8368746;28;20192;-63
2021/03/24 02:01:42;;;;;;;40.13;34.90;;;;;;;8.08;55.02;98740.38;8368519;28;20196;-64
2021/03/24 02:05:45;;;;;;;40.90;34.43;;;;;;;8.07;55.43;98748.97;8368086;28;20211;-63
2021/03/24 02:09:52;;;;;;;41.57;33.93;;;;;;;8.05;55.39;98751.56;8366313;28;20200;-64
2021/03/24 02:13:58;;;;;;;39.33;34.53;;;;;;;7.94;55.65;98738.94;8367475;28;20218;-64
2021/03/24 02:18:01;;;;;;;40.47;34.63;;;;;;;8.00;55.50;98746.53;8367422;28;20184;-64
2021/03/24 02:22:06;;;;;;;39.30;33.90;;;;;;;8.01;55.21;98747.38;8355568;28;20269;-64
2021/03/24 02:26:12;;;;;;;43.20;34.47;;;;;;;8.04;55.00;98726.69;8367488;28;20254;-64
2021/03/24 02:30:20;;;;;;;41.70;34.23;;;;;;;8.06;55.14;98726.66;8366890;28;20200;-63
2021/03/24 02:34:25;;;;;;;39.27;34.10;;;;;;;8.02;55.20;98737.03;8367181;28;20254;-65
2021/03/24 02:38:27;;;;;;;40.00;32.43;;;;;;;8.07;54.67;98713.69;8366697;28;20239;-66
2021/03/24 02:42:30;;;;;;;38.97;33.43;;;;;;;7.98;55.13;98722.50;8366519;28;20286;-64
2021/03/24 02:46:33;;;;;;;37.13;31.60;;;;;;;7.94;54.98;98712.25;8366724;28;20207;-64
2021/03/24 02:50:38;;;;;;;36.57;32.10;;;;;;;7.91;55.53;98720.09;8366670;28;20207;-64
2021/03/24 02:54:41;;;;;;;39.27;33.07;;;;;;;7.86;55.27;98725.31;8366670;28;20230;-64
2021/03/24 02:58:43;;;;;;;36.27;31.70;;;;;;;7.96;55.20;98719.13;8365503;28;20419;-64
2021/03/24 03:02:48;;;;;;;37.60;33.40;;;;;;;7.93;55.51;98723.47;8366111;28;20204;-64
2021/03/24 03:06:53;;;;;;;40.87;32.47;;;;;;;7.82;55.51;98726.28;8365499;28;20240;-64
2021/03/24 03:10:58;;;;;;;35.87;31.67;;;;;;;7.77;55.42;98715.25;8365402;28;20576;-64
2021/03/24 03:15:02;;;;;;;35.77;31.60;;;;;;;7.92;55.23;98719.19;8365654;28;20634;-64
2021/03/24 03:19:08;;;;;;;36.80;31.47;;;;;;;7.92;54.87;98729.50;8365579;28;20196;-64
2021/03/24 03:23:14;;;;;;;35.70;30.27;;;;;;;7.91;54.87;98727.81;8365392;28;20603;-65
2021/03/24 03:27:18;;;;;;;35.57;31.50;;;;;;;7.86;54.78;98720.16;8343293;28;20248;-64
2021/03/24 03:31:24;;;;;;;35.23;30.33;;;;;;;7.89;54.59;98730.44;8363431;28;20538;-65
2021/03/24 03:35:29;;;;;;;33.47;29.83;;;;;;;7.82;55.14;98731.44;8335268;28;20211;-64
2021/03/24 03:39:31;;;;;;;34.43;30.67;;;;;;;7.76;55.02;98731.56;8331749;28;20220;-64
2021/03/24 03:43:33;;;;;;;37.30;31.33;;;;;;;7.78;54.72;98733.22;8358080;28;20199;-64
2021/03/24 03:47:35;;;;;;;34.73;30.43;;;;;;;7.80;54.69;98735.78;8364626;28;20696;-64
2021/03/24 03:51:46;;;;;;;37.43;30.23;;;;;;;7.83;54.90;98730.56;8364802;28;20242;-64
2021/03/24 03:55:53;;;;;;;35.37;30.70;;;;;;;7.81;55.02;98728.03;8364501;28;20254;-64
2021/03/24 03:59:59;;;;;;;36.40;31.13;;;;;;;7.83;54.72;98721.09;8361527;28;20195;-64
2021/03/24 04:04:05;;;;;;;40.00;32.33;;;;;;;7.86;54.90;98722.75;8364843;28;20271;-64
2021/03/24 04:08:11;;;;;;;37.23;31.70;;;;;;;7.76;54.93;98719.53;8364563;28;20539;-64
2021/03/24 04:12:15;;;;;;;34.67;30.87;;;;;;;7.74;55.01;98731.59;8364480;28;20274;-64
2021/03/24 04:16:17;;;;;;;36.73;30.30;;;;;;;7.76;55.28;98729.00;8363800;28;20220;-65
2021/03/24 04:20:21;;;;;;;38.73;31.37;;;;;;;7.74;54.97;98723.88;8363836;28;20220;-64
2021/03/24 04:24:26;;;;;;;34.97;31.00;;;;;;;7.78;54.89;98729.81;8363547;28;20582;-65
2021/03/24 04:28:32;;;;;;;37.27;31.07;;;;;;;7.86;54.89;98733.06;8363375;28;20268;-64
2021/03/24 04:32:34;;;;;;;38.07;31.80;;;;;;;7.81;55.23;98732.34;8354971;28;20197;-64
2021/03/24 04:36:39;;;;;;;36.63;31.67;;;;;;;7.83;55.04;98744.31;8329879;28;20231;-65
2021/03/24 04:40:47;;;;;;;37.33;31.57;;;;;;;7.77;54.95;98743.59;8330144;28;20223;-64
2021/03/24 04:44:53;;;;;;;36.17;30.83;;;;;;;7.78;55.37;98747.84;8330402;28;20196;-65
2021/03/24 04:48:57;;;;;;;36.43;30.30;;;;;;;7.82;55.21;98750.34;8330547;28;20188;-64
2021/03/24 04:53:01;;;;;;;36.10;30.53;;;;;;;7.82;55.16;98760.69;8329981;28;20280;-64
2021/03/24 04:57:12;;;;;;;34.47;30.23;;;;;;;7.86;55.04;98751.13;8329789;28;20189;-63
2021/03/24 05:01:18;;;;;;;35.87;30.57;;;;;;;7.73;55.52;98760.84;8329941;28;20188;-64
2021/03/24 05:05:23;;;;;;;35.90;31.17;;;;;;;7.85;54.72;98758.91;8329233;28;20195;-65
2021/03/24 05:09:24;;;;;;;39.43;31.53;;;;;;;7.77;55.29;98751.34;8326903;28;20205;-65
2021/03/24 05:13:30;;;;;;;35.60;30.77;;;;;;;7.75;55.00;98760.81;8327095;28;20586;-64
2021/03/24 05:17:34;;;;;;;38.60;32.13;;;;;;;7.70;55.19;98758.31;8327117;28;20184;-64
2021/03/24 05:22:01;;;;;;;37.20;32.20;;;;;;;7.75;55.17;98763.38;8336817;28;20200;-64
2021/03/24 05:26:06;;;;;;;36.13;31.87;;;;;;;7.71;55.51;98760.03;8344394;28;20243;-63
2021/03/24 05:30:17;;;;;;;37.67;31.47;;;;;;;7.74;55.49;98764.28;8360679;28;20238;-63
2021/03/24 05:34:23;;;;;;;37.77;31.40;;;;;;;7.69;56.03;98781.56;8361881;28;20231;-63
2021/03/24 05:38:31;;;;;;;36.03;30.97;;;;;;;7.82;55.52;98775.28;8362578;28;20223;-64
2021/03/24 05:42:43;;;;;;;36.83;31.30;;;;;;;7.89;55.28;98781.19;8364377;28;20229;-63
2021/03/24 05:47:15;;;;;;;37.33;30.37;;;;;;;7.94;55.08;98781.91;8367570;28;20184;-63
2021/03/24 05:51:43;;;;;;;32.50;28.90;;;;;;;7.92;55.35;98776.81;8341039;28;20272;-64
2021/03/24 05:55:48;;;;;;;34.27;30.50;;;;;;;7.97;55.14;98784.44;8353629;28;20223;-64
2021/03/24 06:00:00;;;;;;;34.03;30.37;;;;;;;8.02;55.00;98775.72;8345245;28;21439;-64
2021/03/24 06:04:11;;;;;;;35.23;30.07;;;;;;;7.99;55.46;98772.34;8350652;28;20560;-63
2021/03/24 06:08:50;;;;;;;34.60;30.73;;;;;;;8.00;55.39;98772.31;8350949;28;20191;-65
2021/03/24 06:13:14;;;;;;;36.80;31.00;;;;;;;7.93;55.73;98769.91;8361156;28;20219;-64
2021/03/24 06:17:57;;;;;;;35.53;30.63;;;;;;;8.12;55.49;98772.94;8367325;28;20184;-64
2021/03/24 06:22:05;;;;;;;37.00;31.00;;;;;;;8.37;54.40;98768.09;8264819;28;20204;-64
2021/03/24 06:26:23;;;;;;;37.23;30.23;;;;;;;8.82;52.84;98767.94;8316133;28;20244;-64
2021/03/24 06:30:31;;;;;;;33.77;29.97;;;;;;;9.52;51.55;98760.09;8367369;28;20192;-64
2021/03/24 06:34:48;;;;;;;36.87;29.90;;;;;;;9.93;49.79;98754.63;8366615;28;20207;-64
2021/03/24 06:39:10;;;;;;;39.73;31.13;;;;;;;10.34;48.40;98753.44;8365670;28;20227;-64
2021/03/24 06:43:22;;;;;;;35.17;30.20;;;;;;;10.64;47.44;98763.72;8366162;28;20188;-64
2021/03/24 06:47:31;;;;;;;34.63;29.07;;;;;;;10.91;46.85;98750.78;8365604;28;20188;-64
2021/03/24 06:52:07;;;;;;;35.03;28.23;;;;;;;11.22;44.82;98758.34;8366405;28;20180;-64
2021/03/24 06:56:59;;;;;;;33.80;29.40;;;;;;;11.31;44.98;98762.38;8358684;28;20227;-63
2021/03/24 07:01:23;;;;;;;33.30;28.23;;;;;;;11.69;43.74;98757.56;8247704;28;20203;-64
2021/03/24 07:05:48;;;;;;;32.80;29.20;;;;;;;11.99;42.63;98770.34;8293408;28;20651;-64
2021/03/24 07:09:56;;;;;;;32.60;27.80;;;;;;;12.19;40.91;98780.84;8332657;28;20203;-65
2021/03/24 07:14:20;;;;;;;34.53;27.57;;;;;;;12.44;39.94;98767.75;8337967;28;20661;-64
2021/03/24 07:19:06;;;;;;;32.30;28.00;;;;;;;12.02;38.91;98778.88;8350771;28;20199;-64
2021/03/24 07:23:21;;;;;;;27.20;24.27;;;;;;;12.54;38.29;98778.63;8305815;28;20200;-64
2021/03/24 07:27:49;;;;;;;29.07;23.83;;;;;;;13.03;36.90;98774.06;8353909;28;20246;-64
2021/03/24 07:32:00;;;;;;;29.80;24.70;;;;;;;13.01;36.94;98773.28;8304937;28;20199;-64
2021/03/24 07:36:22;;;;;;;32.07;26.17;;;;;;;13.26;35.63;98778.28;8364134;28;20208;-64
2021/03/24 07:40:41;;;;;;;28.03;23.87;;;;;;;13.67;35.63;98780.91;8363589;28;20220;-65
2021/03/24 07:44:53;;;;;;;27.87;24.07;;;;;;;13.89;35.15;98788.59;8363444;28;20230;-64
2021/03/24 07:49:15;;;;;;;26.20;23.43;;;;;;;14.21;34.45;98788.91;8364017;28;20192;-64
2021/03/24 07:53:24;;;;;;;31.83;25.83;;;;;;;12.98;35.70;98783.78;8360541;28;20194;-64
2021/03/24 07:57:31;;;;;;;28.60;25.50;;;;;;;13.63;34.18;98796.69;8343732;28;20191;-64
2021/03/24 08:01:38;;;;;;;23.43;15.27;;;;;;;15.53;43.96;98804.28;8335576;28;20196;-65
2021/03/24 08:06:02;;;;;;;25.30;16.63;;;;;;;16.14;40.06;98806.31;8338733;28;20632;-65
2021/03/24 08:10:23;;;;;;;19.77;15.53;;;;;;;16.74;37.40;98795.19;8332794;28;20262;-65
2021/03/24 08:14:33;;;;;;;26.30;20.73;;;;;;;16.66;33.56;98786.09;8348037;28;20212;-65
2021/03/24 08:18:48;;;;;;;22.67;19.30;;;;;;;17.05;31.62;98790.03;8355172;28;20287;-65
2021/03/24 08:23:08;;;;;;;24.73;21.97;;;;;;;16.95;32.69;98794.94;8360607;28;20212;-66
2021/03/24 08:27:13;;;;;;;24.67;22.03;;;;;;;16.74;31.75;98787.34;8338882;28;20220;-66
2021/03/24 08:31:36;;;;;;;37.87;25.67;;;;;;;16.91;29.43;98781.19;8328994;28;20211;-65
2021/03/24 08:35:52;;;;;;;28.80;24.70;;;;;;;16.73;29.99;98782.19;8336831;28;20212;-64
2021/03/24 08:40:06;;;;;;;25.47;22.70;;;;;;;16.60;29.51;98784.66;8360952;28;20219;-65
2021/03/24 08:44:14;;;;;;;26.93;22.87;;;;;;;16.13;30.10;98775.06;8329432;28;20608;-65
2021/03/24 08:48:25;;;;;;;29.87;26.73;;;;;;;15.66;30.80;98776.63;8332966;28;20651;-64
2021/03/24 08:52:34;;;;;;;30.10;26.60;;;;;;;16.42;30.13;98776.91;8344810;28;20666;-65
2021/03/24 08:56:41;;;;;;;31.47;26.17;;;;;;;16.75;30.14;98764.66;8340126;28;20208;-64
2021/03/24 09:00:52;;;;;;;30.70;26.27;;;;;;;16.91;29.24;98777.75;8344466;28;20207;-64
2021/03/24 09:05:14;;;;;;;29.23;25.33;;;;;;;16.65;29.35;98773.94;8329841;28;20588;-65
2021/03/24 09:09:27;;;;;;;25.83;22.97;;;;;;;17.06;28.97;98762.91;8330155;28;20245;-64
2021/03/24 09:13:32;;;;;;;26.07;23.37;;;;;;;16.46;28.55;98764.50;8330124;28;20184;-64
2021/03/24 09:17:42;;;;;;;27.90;24.07;;;;;;;16.09;29.74;98766.56;8332082;28;20210;-64
2021/03/24 09:21:52;;;;;;;29.83;26.63;;;;;;;15.40;31.75;98757.09;8335148;28;20184;-64
2021/03/24 09:26:05;;;;;;;29.27;26.13;;;;;;;17.07;29.63;98751.53;8353953;28;20599;-64
2021/03/24 09:30:42;;;;;;;31.40;26.47;;;;;;;17.44;28.87;98750.19;8368664;28;20188;-64
2021/03/24 09:34:58;;;;;;;26.90;23.40;;;;;;;17.57;29.04;98752.91;8368672;28;20208;-64
2021/03/24 09:39:12;;;;;;;28.37;25.27;;;;;;;17.65;28.10;98755.03;8368036;28;20315;-64
2021/03/24 09:43:22;;;;;;;27.77;24.77;;;;;;;17.76;27.74;98750.00;8368464;28;20283;-68
2021/03/24 09:47:31;;;;;;;28.83;25.80;;;;;;;17.86;28.30;98750.31;8366665;28;20267;-68
2021/03/24 09:51:36;;;;;;;28.73;25.63;;;;;;;18.17;27.75;98751.88;8360521;28;20199;-69
2021/03/24 09:55:41;;;;;;;30.63;26.50;;;;;;;18.15;27.29;98744.09;8334248;28;20240;-69
2021/03/24 09:59:45;;;;;;;29.27;24.40;;;;;;;18.30;27.80;98738.84;8334680;28;20204;-69
2021/03/24 10:03:53;;;;;;;26.27;23.07;;;;;;;18.89;27.31;98742.00;8334398;28;20215;-68
2021/03/24 10:08:00;;;;;;;23.93;21.53;;;;;;;18.89;26.45;98734.13;8355322;28;20323;-67
2021/03/24 10:12:17;;;;;;;28.50;25.40;;;;;;;18.55;27.05;98741.53;8353588;28;20211;-69
2021/03/24 10:16:22;;;;;;;27.57;24.77;;;;;;;18.76;27.20;98746.34;8348280;28;20216;-68
2021/03/24 10:20:28;;;;;;;26.87;23.97;;;;;;;19.00;26.48;98745.69;8333689;28;20203;-64
2021/03/24 10:24:34;;;;;;;27.57;24.07;;;;;;;19.16;26.05;98740.28;8333432;28;20193;-64
2021/03/24 10:28:40;;;;;;;26.80;23.40;;;;;;;19.17;26.00;98737.50;8333228;28;20236;-65
2021/03/24 10:32:47;;;;;;;27.00;24.20;;;;;;;19.08;25.82;98727.66;8334399;28;20529;-64
2021/03/24 10:37:02;;;;;;;26.07;23.37;;;;;;;19.23;26.17;98729.25;8333654;28;20209;-66
2021/03/24 10:41:28;;;;;;;27.50;24.07;;;;;;;18.98;25.37;98722.16;8344416;28;20297;-64
2021/03/24 10:45:34;;;;;;;26.33;23.60;;;;;;;19.17;26.86;98716.50;8352490;28;20655;-65
2021/03/24 10:49:41;;;;;;;32.00;23.93;;;;;;;19.08;25.82;98718.00;8346190;28;20220;-68
2021/03/24 10:53:43;;;;;;;27.17;23.77;;;;;;;18.96;26.68;98718.78;8344591;28;20188;-65
2021/03/24 10:57:53;;;;;;;24.53;21.63;;;;;;;19.32;25.88;98712.88;8349697;28;20203;-65
2021/03/24 11:01:59;;;;;;;24.73;21.47;;;;;;;19.53;26.23;98713.19;8333825;28;20192;-66
2021/03/24 11:06:04;;;;;;;25.50;22.63;;;;;;;19.35;26.03;98701.31;8332559;28;20612;-67
2021/03/24 11:10:52;;;;;;;25.37;21.97;;;;;;;19.17;25.54;98695.50;8332862;28;20196;-65
2021/03/24 11:15:03;;;;;;;26.70;23.83;;;;;;;18.34;25.99;98693.13;8255638;28;20251;-66
2021/03/24 11:19:15;;;;;;;24.40;21.80;;;;;;;18.85;25.75;98693.28;8332526;28;20469;-64
2021/03/24 11:23:22;;;;;;;24.50;21.83;;;;;;;19.04;26.13;98687.66;8332512;28;20608;-64
2021/03/24 11:27:30;;;;;;;26.23;23.43;;;;;;;19.22;26.13;98680.28;8364929;28;20227;-65
2021/03/24 11:31:55;;;;;;;26.03;23.33;;;;;;;19.29;25.89;98678.94;8366974;28;20214;-67
2021/03/24 11:36:00;;;;;;;29.33;22.73;;;;;;;19.11;27.15;98673.16;8350357;28;20278;-73
2021/03/24 11:40:09;;;;;;;24.43;21.17;;;;;;;19.20;27.22;98666.44;8342412;28;20230;-73
2021/03/24 11:44:14;;;;;;;27.53;23.53;;;;;;;19.23;27.79;98668.00;8346979;28;20614;-72
2021/03/24 11:48:38;;;;;;;24.33;21.70;;;;;;;19.47;27.24;98662.84;8349799;28;20635;-73
2021/03/24 11:52:53;;;;;;;23.87;21.43;;;;;;;19.35;27.54;98654.03;8364177;28;20501;-73
2021/03/24 11:57:05;;;;;;;25.67;23.07;;;;;;;19.28;27.05;98652.78;8363964;28;20285;-72
2021/03/24 12:01:28;;;;;;;29.77;24.70;;;;;;;18.84;28.13;98643.53;8363838;28;20190;-66
2021/03/24 12:05:32;;;;;;;24.63;22.03;;;;;;;19.09;27.49;98635.66;8360588;28;20214;-66
2021/03/24 12:09:39;;;;;;;26.93;22.67;;;;;;;19.01;28.02;98632.72;8363355;28;20274;-66
2021/03/24 12:13:41;;;;;;;25.80;23.10;;;;;;;18.62;27.05;98623.97;8363538;28;20195;-66
2021/03/24 12:17:43;;;;;;;25.03;21.20;;;;;;;18.94;27.85;98623.59;8363611;28;20216;-65
2021/03/24 12:21:46;;;;;;;25.70;22.93;;;;;;;18.56;28.53;98616.47;8362192;28;20196;-68
2021/03/24 12:25:51;;;;;;;35.00;21.03;;;;;;;19.10;27.98;98608.47;8362170;28;20508;-65
2021/03/24 12:29:58;;;;;;;25.00;21.10;;;;;;;19.13;27.33;98600.41;8338311;28;20199;-68
2021/03/24 12:34:01;;;;;;;23.77;20.73;;;;;;;19.24;26.64;98602.25;8357601;28;20195;-68
2021/03/24 12:38:07;;;;;;;23.57;20.33;;;;;;;19.08;27.09;98596.41;8357288;28;20232;-68
2021/03/24 12:42:17;;;;;;;21.53;19.23;;;;;;;18.60;26.80;98591.75;8330312;28;20188;-67
2021/03/24 12:46:21;;;;;;;24.57;21.43;;;;;;;18.78;27.92;98592.28;8332332;28;20200;-67
2021/03/24 12:50:26;;;;;;;25.17;21.53;;;;;;;18.71;26.90;98591.84;8328021;28;20204;-64
2021/03/24 12:54:28;;;;;;;24.17;21.53;;;;;;;18.91;27.64;98587.06;8327938;28;20593;-65
2021/03/24 12:58:45;;;;;;;22.77;19.93;;;;;;;19.23;27.62;98573.47;8339979;28;20196;-65
2021/03/24 13:03:39;;;;;;;27.53;19.70;;;;;;;19.00;26.88;98572.47;8328254;28;20631;-65
2021/03/24 13:07:42;;;;;;;23.03;19.87;;;;;;;18.77;28.12;98566.97;8327921;28;20208;-64
2021/03/24 13:11:49;;;;;;;21.57;19.27;;;;;;;19.21;26.28;98557.00;8355259;28;20201;-65
2021/03/24 13:15:54;;;;;;;21.50;18.20;;;;;;;18.84;26.61;98563.03;8330146;28;20667;-65
2021/03/24 13:20:19;;;;;;;21.17;18.87;;;;;;;19.14;26.56;98551.34;8343688;28;20207;-64
2021/03/24 13:24:38;;;;;;;21.27;18.87;;;;;;;19.44;26.33;98543.09;8345121;28;20196;-66
2021/03/24 13:28:47;;;;;;;21.50;19.20;;;;;;;19.42;26.52;98547.63;8345270;28;20220;-65
2021/03/24 13:32:54;;;;;;;21.70;19.40;;;;;;;18.86;26.42;98537.50;8354796;28;20184;-65
2021/03/24 13:36:58;;;;;;;20.80;18.57;;;;;;;19.28;26.17;98530.19;8361154;28;20211;-65
2021/03/24 13:41:01;;;;;;;22.77;19.40;;;;;;;19.05;26.50;98534.44;8361401;28;20575;-65
2021/03/24 13:45:07;;;;;;;20.00;18.03;;;;;;;18.56;27.29;98529.94;8360307;28;20200;-64
2021/03/24 13:49:21;;;;;;;20.80;18.13;;;;;;;19.22;26.19;98516.69;8361149;28;20184;-64
2021/03/24 13:53:31;;;;;;;22.20;19.47;;;;;;;19.04;26.90;98518.78;8360354;28;20188;-64
2021/03/24 13:57:42;;;;;;;24.10;19.20;;;;;;;19.24;26.66;98507.72;8361026;28;20223;-65
2021/03/24 14:01:54;;;;;;;20.93;18.40;;;;;;;19.19;26.79;98507.25;8361307;28;20191;-65
2021/03/24 14:06:04;;;;;;;21.77;19.57;;;;;;;18.68;26.91;98510.75;8365213;28;20258;-65
2021/03/24 14:10:10;;;;;;;23.70;18.37;;;;;;;19.17;27.19;98503.84;8367485;28;20191;-65
2021/03/24 14:14:25;;;;;;;19.47;17.40;;;;;;;19.20;26.63;98493.16;8365508;28;20192;-64
2021/03/24 14:18:39;;;;;;;23.73;18.37;;;;;;;19.41;27.98;98496.03;8366302;28;20187;-65
2021/03/24 14:22:55;;;;;;;24.77;16.93;;;;;;;19.59;27.49;98493.88;8366392;28;20202;-64
2021/03/24 14:27:02;;;;;;;20.30;18.10;;;;;;;19.49;26.99;98490.22;8355876;28;20348;-65
2021/03/24 14:31:17;;;;;;;23.80;19.20;;;;;;;18.47;28.24;98483.38;8330655;28;20176;-65
2021/03/24 14:35:22;;;;;;;20.00;17.90;;;;;;;19.04;28.27;98480.28;8329973;28;20212;-66
2021/03/24 14:39:31;;;;;;;20.37;17.37;;;;;;;19.16;28.07;98472.50;8329395;28;20326;-65
2021/03/24 14:44:09;;;;;;;22.13;19.10;;;;;;;19.29;27.96;98474.13;8329829;28;20184;-65
2021/03/24 14:48:21;;;;;;;23.17;19.03;;;;;;;19.00;28.20;98468.34;8321893;28;20192;-65
2021/03/24 14:52:26;;;;;;;20.37;18.17;;;;;;;19.16;29.09;98468.06;8331566;28;20181;-64
2021/03/24 14:56:37;;;;;;;20.80;18.60;;;;;;;18.94;28.06;98460.88;8332807;28;20216;-64
2021/03/24 15:00:40;;;;;;;24.57;18.93;;;;;;;19.01;28.56;98458.66;8332262;28;20220;-65
2021/03/24 15:04:46;;;;;;;19.63;16.50;;;;;;;18.87;29.22;98450.00;8331515;28;20287;-64
2021/03/24 15:08:52;;;;;;;19.87;17.73;;;;;;;18.99;28.75;98464.03;8330749;28;20238;-64
2021/03/24 15:12:57;;;;;;;20.53;17.90;;;;;;;18.76;29.48;98455.94;8330550;28;20279;-64
2021/03/24 15:17:11;;;;;;;21.73;18.77;;;;;;;18.84;29.39;98446.75;8330402;28;20260;-65
2021/03/24 15:21:20;;;;;;;21.07;18.80;;;;;;;18.68;29.71;98445.16;8331054;28;20195;-64
2021/03/24 15:25:24;;;;;;;23.93;19.33;;;;;;;18.52;29.70;98445.41;8345147;28;20277;-65
2021/03/24 15:29:32;;;;;;;21.17;18.90;;;;;;;18.26;30.23;98446.31;8364909;28;20235;-64
2021/03/24 15:33:40;;;;;;;19.33;17.30;;;;;;;18.30;30.68;98439.97;8363615;28;20196;-65
2021/03/24 15:37:49;;;;;;;22.20;19.13;;;;;;;18.17;30.45;98447.81;8362811;28;20314;-64
2021/03/24 15:42:00;;;;;;;20.33;18.30;;;;;;;18.02;31.36;98440.97;8362628;28;20235;-66
2021/03/24 15:46:16;;;;;;;28.03;19.80;;;;;;;17.91;31.03;98434.66;8344895;28;20286;-66
2021/03/24 15:50:35;;;;;;;22.60;18.10;;;;;;;17.94;31.10;98441.50;8347856;28;20216;-65
2021/03/24 15:54:40;;;;;;;26.47;20.13;;;;;;;17.52;31.63;98430.28;8329642;28;20234;-65
2021/03/24 15:58:52;;;;;;;27.20;20.03;;;;;;;17.48;31.98;98428.81;8330974;28;20549;-65
2021/03/24 16:03:14;;;;;;;22.97;19.07;;;;;;;17.32;32.83;98434.16;8332539;28;20213;-65
2021/03/24 16:07:22;;;;;;;21.33;17.40;;;;;;;17.30;32.85;98431.66;8358697;28;20195;-66
2021/03/24 16:11:40;;;;;;;25.57;19.70;;;;;;;17.06;32.99;98433.22;8344198;28;20184;-67
2021/03/24 16:15:55;;;;;;;21.57;19.13;;;;;;;17.02;33.06;98427.38;8328649;28;20230;-66
2021/03/24 16:20:03;;;;;;;22.17;18.60;;;;;;;16.83;33.48;98435.53;8329015;28;20193;-65
2021/03/24 16:24:11;;;;;;;23.40;20.87;;;;;;;16.61;34.62;98425.50;8328946;28;20181;-65
2021/03/24 16:28:24;;;;;;;24.03;19.47;;;;;;;16.76;34.27;98428.97;8328140;28;20220;-65
2021/03/24 16:33:13;;;;;;;22.53;19.77;;;;;;;16.59;34.24;98430.00;8339570;28;20197;-66
2021/03/24 16:37:27;;;;;;;22.70;15.98;;;;;;;17.06;41.09;98431.47;8346241;28;20522;-64
2021/03/24 16:41:41;;;;;;;19.13;11.17;;;;;;;17.48;41.12;98436.66;8344614;28;20241;-64
2021/03/24 16:46:02;;;;;;;20.53;13.07;;;;;;;17.62;38.29;98433.97;8328976;28;20181;-65
2021/03/24 16:50:41;;;;;;;18.40;15.93;;;;;;;17.75;38.06;98432.22;8305224;28;20230;-66
2021/03/24 16:54:54;;;;;;;22.27;16.13;;;;;;;17.81;36.86;98435.38;8344242;28;20204;-65
2021/03/24 16:59:02;;;;;;;17.73;15.50;;;;;;;17.86;36.00;98435.91;8344784;28;20659;-65
2021/03/24 17:03:09;;;;;;;20.83;17.37;;;;;;;17.84;35.80;98430.81;8344386;28;20195;-64
2021/03/24 17:07:18;;;;;;;20.43;16.10;;;;;;;17.82;36.25;98430.03;8344972;28;20180;-64
2021/03/24 17:11:32;;;;;;;26.00;21.63;;;;;;;17.06;34.43;98426.22;8328350;28;20197;-66
2021/03/24 17:15:43;;;;;;;29.73;23.60;;;;;;;16.56;35.15;98430.19;8328471;28;20208;-65
2021/03/24 17:19:51;;;;;;;28.27;22.90;;;;;;;16.36;35.68;98429.63;8328294;28;20185;-66
2021/03/24 17:24:08;;;;;;;26.37;22.50;;;;;;;16.06;36.32;98434.91;8328646;28;20192;-65
2021/03/24 17:28:24;;;;;;;28.07;23.87;;;;;;;15.83;37.61;98442.31;8328887;28;20232;-66
2021/03/24 17:32:29;;;;;;;38.27;27.53;;;;;;;15.59;38.12;98431.53;8328356;28;20200;-66
2021/03/24 17:37:14;;;;;;;36.77;25.97;;;;;;;15.37;37.74;98433.66;8333597;28;20304;-65
2021/03/24 17:41:20;;;;;;;37.80;26.17;;;;;;;15.22;39.22;98438.81;8328746;28;20192;-65
2021/03/24 17:45:26;;;;;;;26.60;21.53;;;;;;;15.05;39.30;98433.69;8340475;28;20208;-65
2021/03/24 17:49:30;;;;;;;28.17;21.93;;;;;;;14.91;39.53;98433.59;8335493;28;20200;-65
2021/03/24 17:53:39;;;;;;;28.60;21.50;;;;;;;14.76;39.66;98428.28;8334272;28;20201;-65
2021/03/24 17:57:45;;;;;;;29.57;22.87;;;;;;;14.63;40.13;98427.28;8334013;28;20212;-65
2021/03/24 18:01:52;;;;;;;38.37;34.30;;;;;;;14.51;40.10;98431.34;8356393;28;20214;-65
2021/03/24 18:06:06;;;;;;;58.30;26.47;;;;;;;14.37;40.60;98433.81;8366944;28;20241;-65
2021/03/24 18:10:11;;;;;;;33.97;25.77;;;;;;;14.24;40.72;98439.69;8366555;28;20200;-66
2021/03/24 18:14:22;;;;;;;55.67;42.53;;;;;;;14.18;40.92;98442.59;8366558;28;20607;-65
2021/03/24 18:18:27;;;;;;;74.97;61.60;;;;;;;14.05;41.16;98445.00;8366165;28;20632;-64
2021/03/24 18:22:31;;;;;;;82.30;67.33;;;;;;;13.98;41.05;98443.63;8366605;28;20204;-65
2021/03/24 18:26:36;;;;;;;65.37;53.90;;;;;;;13.85;42.85;98438.19;8365720;28;20561;-64
2021/03/24 18:30:40;;;;;;;74.03;59.27;;;;;;;13.76;42.52;98443.84;8357281;28;20607;-66
2021/03/24 18:34:45;;;;;;;35.67;29.97;;;;;;;13.71;42.64;98442.38;8346161;28;20295;-68
2021/03/24 18:38:50;;;;;;;30.97;24.40;;;;;;;13.58;42.69;98440.41;8332623;28;20310;-65
2021/03/24 18:42:56;;;;;;;32.87;22.97;;;;;;;13.45;43.03;98445.34;8332584;28;20196;-64
2021/03/24 18:46:59;;;;;;;27.60;21.10;;;;;;;13.24;43.23;98448.97;8332979;28;20197;-64
2021/03/24 18:51:20;;;;;;;27.33;20.17;;;;;;;13.24;43.26;98447.19;8332109;28;20204;-64
2021/03/24 18:55:27;;;;;;;24.67;18.63;;;;;;;13.03;43.90;98448.22;8332580;28;20216;-65
2021/03/24 18:59:32;;;;;;;20.73;15.87;;;;;;;12.97;43.85;98451.09;8349986;28;20627;-65
2021/03/24 19:03:35;;;;;;;20.03;16.73;;;;;;;12.73;43.97;98458.25;8344968;28;20196;-65
2021/03/24 19:07:44;;;;;;;19.23;17.13;;;;;;;12.65;44.30;98454.25;8335274;28;20188;-67
2021/03/24 19:11:46;;;;;;;22.53;18.40;;;;;;;12.61;44.28;98444.91;8366120;28;20208;-65
2021/03/24 19:15:48;;;;;;;21.33;17.93;;;;;;;12.45;44.73;98456.88;8365813;28;20556;-65